sensor_id;sensor_type;location;lat;lon;timestamp;temperature;humidity
60293;DHT22;52402;52.670;6.750;2024-02-26T00:00:10;2.50;99.90
60293;DHT22;52402;52.670;6.750;2024-02-26T00:02:37;2.50;99.90
60293;DHT22;52402;52.670;6.750;2024-02-26T00:05:07;2.50;99.90
60293;DHT22;52402;52.670;6.750;2024-02-26T00:07:33;2.60;99.90
60293;DHT22;52402;52.670;6.750;2024-02-26T00:09:58;2.60;99.90
60293;DHT22;52402;52.670;6.750;2024-02-26T00:12:24;2.60;99.90
60293;DHT22;52402;52.670;6.750;2024-02-26T00:14:50;2.50;99.90
60293;DHT22;52402;52.670;6.750;2024-02-26T00:17:15;2.50;99.90
60293;DHT22;52402;52.670;6.750;2024-02-26T00:19:41;2.50;99.90
60293;DHT22;52402;52.670;6.750;2024-02-26T00:22:07;2.50;99.90
60293;DHT22;52402;52.670;6.750;2024-02-26T00:24:32;2.50;99.90
60293;DHT22;52402;52.670;6.750;2024-02-26T00:26:59;2.50;99.90
60293;DHT22;52402;52.670;6.750;2024-02-26T00:29:25;2.40;99.90
60293;DHT22;52402;52.670;6.750;2024-02-26T00:31:51;2.40;99.90
60293;DHT22;52402;52.670;6.750;2024-02-26T00:34:17;2.30;99.90
60293;DHT22;52402;52.670;6.750;2024-02-26T00:36:42;2.30;99.90
60293;DHT22;52402;52.670;6.750;2024-02-26T00:39:08;2.50;99.90
60293;DHT22;52402;52.670;6.750;2024-02-26T00:41:38;2.50;99.90
60293;DHT22;52402;52.670;6.750;2024-02-26T00:44:04;2.50;99.90
60293;DHT22;52402;52.670;6.750;2024-02-26T00:46:29;2.60;99.90
60293;DHT22;52402;52.670;6.750;2024-02-26T00:48:55;2.60;99.90
60293;DHT22;52402;52.670;6.750;2024-02-26T00:51:20;2.50;99.90
60293;DHT22;52402;52.670;6.750;2024-02-26T00:53:46;2.60;99.90
60293;DHT22;52402;52.670;6.750;2024-02-26T00:56:11;2.50;99.90
60293;DHT22;52402;52.670;6.750;2024-02-26T00:58:37;2.50;99.90
60293;DHT22;52402;52.670;6.750;2024-02-26T01:01:03;2.50;99.90
60293;DHT22;52402;52.670;6.750;2024-02-26T01:03:28;2.50;99.90
60293;DHT22;52402;52.670;6.750;2024-02-26T01:05:54;2.50;99.90
60293;DHT22;52402;52.670;6.750;2024-02-26T01:08:19;2.50;99.90
60293;DHT22;52402;52.670;6.750;2024-02-26T01:10:45;2.50;99.90
60293;DHT22;52402;52.670;6.750;2024-02-26T01:13:11;2.60;99.90
60293;DHT22;52402;52.670;6.750;2024-02-26T01:15:37;2.60;99.90
60293;DHT22;52402;52.670;6.750;2024-02-26T01:18:02;2.60;99.90
60293;DHT22;52402;52.670;6.750;2024-02-26T01:20:28;2.60;99.90
60293;DHT22;52402;52.670;6.750;2024-02-26T01:22:53;2.60;99.90
60293;DHT22;52402;52.670;6.750;2024-02-26T01:25:19;2.70;99.90
60293;DHT22;52402;52.670;6.750;2024-02-26T01:27:45;2.60;99.90
60293;DHT22;52402;52.670;6.750;2024-02-26T01:30:10;2.60;99.90
60293;DHT22;52402;52.670;6.750;2024-02-26T01:32:36;2.60;99.90
60293;DHT22;52402;52.670;6.750;2024-02-26T01:35:02;2.60;99.90
60293;DHT22;52402;52.670;6.750;2024-02-26T01:37:35;2.60;99.90
60293;DHT22;52402;52.670;6.750;2024-02-26T01:40:01;2.60;99.90
60293;DHT22;52402;52.670;6.750;2024-02-26T01:42:30;2.60;99.90
60293;DHT22;52402;52.670;6.750;2024-02-26T01:44:56;2.60;99.90
60293;DHT22;52402;52.670;6.750;2024-02-26T01:47:22;2.60;99.90
60293;DHT22;52402;52.670;6.750;2024-02-26T01:49:48;2.60;99.90
60293;DHT22;52402;52.670;6.750;2024-02-26T01:52:14;2.50;99.90
60293;DHT22;52402;52.670;6.750;2024-02-26T01:54:40;2.50;99.90
60293;DHT22;52402;52.670;6.750;2024-02-26T01:57:08;2.50;99.90
60293;DHT22;52402;52.670;6.750;2024-02-26T01:59:34;2.50;99.90
60293;DHT22;52402;52.670;6.750;2024-02-26T02:02:03;2.50;99.90
60293;DHT22;52402;52.670;6.750;2024-02-26T02:04:29;2.50;99.90
60293;DHT22;52402;52.670;6.750;2024-02-26T02:06:55;2.50;99.90
60293;DHT22;52402;52.670;6.750;2024-02-26T02:09:22;2.50;99.90
60293;DHT22;52402;52.670;6.750;2024-02-26T02:11:48;2.40;99.90
60293;DHT22;52402;52.670;6.750;2024-02-26T02:14:14;2.50;99.90
60293;DHT22;52402;52.670;6.750;2024-02-26T02:16:40;2.40;99.90
60293;DHT22;52402;52.670;6.750;2024-02-26T02:19:06;2.50;99.90
60293;DHT22;52402;52.670;6.750;2024-02-26T02:21:31;2.50;99.90
60293;DHT22;52402;52.670;6.750;2024-02-26T02:23:57;2.60;99.90
60293;DHT22;52402;52.670;6.750;2024-02-26T02:26:22;2.60;99.90
60293;DHT22;52402;52.670;6.750;2024-02-26T02:28:48;2.60;99.90
60293;DHT22;52402;52.670;6.750;2024-02-26T02:31:15;2.60;99.90
60293;DHT22;52402;52.670;6.750;2024-02-26T02:33:40;2.60;99.90
60293;DHT22;52402;52.670;6.750;2024-02-26T02:36:06;2.60;99.90
60293;DHT22;52402;52.670;6.750;2024-02-26T02:38:36;2.70;99.90
60293;DHT22;52402;52.670;6.750;2024-02-26T02:41:01;2.70;99.90
60293;DHT22;52402;52.670;6.750;2024-02-26T02:43:27;2.70;99.90
60293;DHT22;52402;52.670;6.750;2024-02-26T02:45:52;2.70;99.90
60293;DHT22;52402;52.670;6.750;2024-02-26T02:48:18;2.70;99.90
60293;DHT22;52402;52.670;6.750;2024-02-26T02:53:32;2.70;99.90
60293;DHT22;52402;52.670;6.750;2024-02-26T02:55:58;2.70;99.90
60293;DHT22;52402;52.670;6.750;2024-02-26T02:58:23;2.70;99.90
60293;DHT22;52402;52.670;6.750;2024-02-26T03:00:49;2.70;99.90
60293;DHT22;52402;52.670;6.750;2024-02-26T03:03:14;2.80;99.90
60293;DHT22;52402;52.670;6.750;2024-02-26T03:05:40;2.80;99.90
60293;DHT22;52402;52.670;6.750;2024-02-26T03:08:06;2.80;99.90
60293;DHT22;52402;52.670;6.750;2024-02-26T03:10:31;2.80;99.90
60293;DHT22;52402;52.670;6.750;2024-02-26T03:12:57;2.80;99.90
60293;DHT22;52402;52.670;6.750;2024-02-26T03:15:22;2.90;99.90
60293;DHT22;52402;52.670;6.750;2024-02-26T03:17:48;2.90;99.90
60293;DHT22;52402;52.670;6.750;2024-02-26T03:20:13;2.90;99.90
60293;DHT22;52402;52.670;6.750;2024-02-26T03:22:40;2.90;99.90
60293;DHT22;52402;52.670;6.750;2024-02-26T03:25:06;3.00;99.90
60293;DHT22;52402;52.670;6.750;2024-02-26T03:27:32;3.00;99.90
60293;DHT22;52402;52.670;6.750;2024-02-26T03:29:58;2.90;99.90
60293;DHT22;52402;52.670;6.750;2024-02-26T03:32:24;2.90;99.90
60293;DHT22;52402;52.670;6.750;2024-02-26T03:34:49;3.00;99.90
60293;DHT22;52402;52.670;6.750;2024-02-26T03:37:15;3.00;99.90
60293;DHT22;52402;52.670;6.750;2024-02-26T03:39:40;2.90;99.90
60293;DHT22;52402;52.670;6.750;2024-02-26T03:42:06;2.90;99.90
60293;DHT22;52402;52.670;6.750;2024-02-26T03:44:32;3.00;99.90
60293;DHT22;52402;52.670;6.750;2024-02-26T03:46:57;3.00;99.90
60293;DHT22;52402;52.670;6.750;2024-02-26T03:49:23;3.00;99.90
60293;DHT22;52402;52.670;6.750;2024-02-26T03:51:49;3.00;99.90
60293;DHT22;52402;52.670;6.750;2024-02-26T03:54:14;3.00;99.90
60293;DHT22;52402;52.670;6.750;2024-02-26T03:56:40;3.00;99.90
60293;DHT22;52402;52.670;6.750;2024-02-26T03:59:05;3.00;99.90
60293;DHT22;52402;52.670;6.750;2024-02-26T04:01:31;3.00;99.90
60293;DHT22;52402;52.670;6.750;2024-02-26T04:03:57;3.00;99.90
60293;DHT22;52402;52.670;6.750;2024-02-26T04:06:22;3.00;99.90
60293;DHT22;52402;52.670;6.750;2024-02-26T04:08:48;3.00;99.90
60293;DHT22;52402;52.670;6.750;2024-02-26T04:11:14;3.00;99.90
60293;DHT22;52402;52.670;6.750;2024-02-26T04:13:43;3.10;99.90
60293;DHT22;52402;52.670;6.750;2024-02-26T04:16:11;3.10;99.90
60293;DHT22;52402;52.670;6.750;2024-02-26T04:18:37;3.10;99.90
60293;DHT22;52402;52.670;6.750;2024-02-26T04:21:04;3.10;99.90
60293;DHT22;52402;52.670;6.750;2024-02-26T04:23:31;3.10;99.90
60293;DHT22;52402;52.670;6.750;2024-02-26T04:25:56;3.20;99.90
60293;DHT22;52402;52.670;6.750;2024-02-26T04:28:22;3.20;99.90
60293;DHT22;52402;52.670;6.750;2024-02-26T04:30:50;3.20;99.90
60293;DHT22;52402;52.670;6.750;2024-02-26T04:33:16;3.20;99.90
60293;DHT22;52402;52.670;6.750;2024-02-26T04:35:42;3.10;99.90
60293;DHT22;52402;52.670;6.750;2024-02-26T04:38:08;3.10;99.90
60293;DHT22;52402;52.670;6.750;2024-02-26T04:40:33;3.20;99.90
60293;DHT22;52402;52.670;6.750;2024-02-26T04:42:59;3.20;99.90
60293;DHT22;52402;52.670;6.750;2024-02-26T04:45:24;3.20;99.90
60293;DHT22;52402;52.670;6.750;2024-02-26T04:47:50;3.20;99.90
60293;DHT22;52402;52.670;6.750;2024-02-26T04:50:16;3.20;99.90
60293;DHT22;52402;52.670;6.750;2024-02-26T04:52:42;3.20;99.90
60293;DHT22;52402;52.670;6.750;2024-02-26T04:55:07;3.20;99.90
60293;DHT22;52402;52.670;6.750;2024-02-26T04:57:33;3.20;99.90
60293;DHT22;52402;52.670;6.750;2024-02-26T04:59:59;3.20;99.90
60293;DHT22;52402;52.670;6.750;2024-02-26T05:02:25;3.20;99.90
60293;DHT22;52402;52.670;6.750;2024-02-26T05:04:50;3.20;99.90
60293;DHT22;52402;52.670;6.750;2024-02-26T05:07:16;3.20;99.90
60293;DHT22;52402;52.670;6.750;2024-02-26T05:09:44;3.30;99.90
60293;DHT22;52402;52.670;6.750;2024-02-26T05:12:10;3.30;99.90
60293;DHT22;52402;52.670;6.750;2024-02-26T05:14:36;3.30;99.90
60293;DHT22;52402;52.670;6.750;2024-02-26T05:17:01;3.30;99.90
60293;DHT22;52402;52.670;6.750;2024-02-26T05:19:27;3.30;99.90
60293;DHT22;52402;52.670;6.750;2024-02-26T05:21:52;3.30;99.90
60293;DHT22;52402;52.670;6.750;2024-02-26T05:24:18;3.30;99.90
60293;DHT22;52402;52.670;6.750;2024-02-26T05:26:47;3.30;99.90
60293;DHT22;52402;52.670;6.750;2024-02-26T05:29:13;3.30;99.90
60293;DHT22;52402;52.670;6.750;2024-02-26T05:31:39;3.40;99.90
60293;DHT22;52402;52.670;6.750;2024-02-26T05:34:05;3.40;99.90
60293;DHT22;52402;52.670;6.750;2024-02-26T05:36:30;3.40;99.90
60293;DHT22;52402;52.670;6.750;2024-02-26T05:39:01;3.40;99.90
60293;DHT22;52402;52.670;6.750;2024-02-26T05:41:29;3.40;99.90
60293;DHT22;52402;52.670;6.750;2024-02-26T05:43:55;3.40;99.90
60293;DHT22;52402;52.670;6.750;2024-02-26T05:46:21;3.50;99.90
60293;DHT22;52402;52.670;6.750;2024-02-26T05:48:48;3.50;99.90
60293;DHT22;52402;52.670;6.750;2024-02-26T05:51:13;3.50;99.90
60293;DHT22;52402;52.670;6.750;2024-02-26T05:53:40;3.50;99.90
60293;DHT22;52402;52.670;6.750;2024-02-26T05:56:06;3.50;99.90
60293;DHT22;52402;52.670;6.750;2024-02-26T05:58:32;3.50;99.90
60293;DHT22;52402;52.670;6.750;2024-02-26T06:00:57;3.50;99.90
60293;DHT22;52402;52.670;6.750;2024-02-26T06:03:23;3.60;99.90
60293;DHT22;52402;52.670;6.750;2024-02-26T06:05:49;3.60;99.90
60293;DHT22;52402;52.670;6.750;2024-02-26T06:08:14;3.60;99.90
60293;DHT22;52402;52.670;6.750;2024-02-26T06:10:40;3.60;99.90
60293;DHT22;52402;52.670;6.750;2024-02-26T06:13:05;3.70;99.90
60293;DHT22;52402;52.670;6.750;2024-02-26T06:15:31;3.70;99.90
60293;DHT22;52402;52.670;6.750;2024-02-26T06:17:57;3.70;99.90
60293;DHT22;52402;52.670;6.750;2024-02-26T06:20:22;3.70;99.90
60293;DHT22;52402;52.670;6.750;2024-02-26T06:22:48;3.70;99.90
60293;DHT22;52402;52.670;6.750;2024-02-26T06:25:14;3.80;99.90
60293;DHT22;52402;52.670;6.750;2024-02-26T06:27:40;3.70;99.90
60293;DHT22;52402;52.670;6.750;2024-02-26T06:30:06;3.80;99.90
60293;DHT22;52402;52.670;6.750;2024-02-26T06:32:31;3.80;99.90
60293;DHT22;52402;52.670;6.750;2024-02-26T06:34:57;3.70;99.90
60293;DHT22;52402;52.670;6.750;2024-02-26T06:37:23;3.80;99.90
60293;DHT22;52402;52.670;6.750;2024-02-26T06:39:48;3.70;99.90
60293;DHT22;52402;52.670;6.750;2024-02-26T06:42:14;3.80;99.90
60293;DHT22;52402;52.670;6.750;2024-02-26T06:44:39;3.70;99.90
60293;DHT22;52402;52.670;6.750;2024-02-26T06:47:05;3.80;99.90
60293;DHT22;52402;52.670;6.750;2024-02-26T06:49:31;3.70;99.90
60293;DHT22;52402;52.670;6.750;2024-02-26T06:51:56;3.70;99.90
60293;DHT22;52402;52.670;6.750;2024-02-26T06:54:22;3.70;99.90
60293;DHT22;52402;52.670;6.750;2024-02-26T06:56:48;3.80;99.90
60293;DHT22;52402;52.670;6.750;2024-02-26T06:59:13;3.80;99.90
60293;DHT22;52402;52.670;6.750;2024-02-26T07:01:42;3.80;99.90
60293;DHT22;52402;52.670;6.750;2024-02-26T07:04:08;3.80;99.90
60293;DHT22;52402;52.670;6.750;2024-02-26T07:06:34;3.80;99.90
60293;DHT22;52402;52.670;6.750;2024-02-26T07:08:59;3.80;99.90
60293;DHT22;52402;52.670;6.750;2024-02-26T07:11:25;3.80;99.90
60293;DHT22;52402;52.670;6.750;2024-02-26T07:13:50;3.80;99.90
60293;DHT22;52402;52.670;6.750;2024-02-26T07:16:16;3.90;99.90
60293;DHT22;52402;52.670;6.750;2024-02-26T07:18:42;3.80;99.90
60293;DHT22;52402;52.670;6.750;2024-02-26T07:21:12;3.90;99.90
60293;DHT22;52402;52.670;6.750;2024-02-26T07:23:37;3.90;99.90
60293;DHT22;52402;52.670;6.750;2024-02-26T07:26:03;3.90;99.90
60293;DHT22;52402;52.670;6.750;2024-02-26T07:28:31;3.90;99.90
60293;DHT22;52402;52.670;6.750;2024-02-26T07:30:56;3.90;99.90
60293;DHT22;52402;52.670;6.750;2024-02-26T07:33:22;3.90;99.90
60293;DHT22;52402;52.670;6.750;2024-02-26T07:35:48;3.90;99.90
60293;DHT22;52402;52.670;6.750;2024-02-26T07:38:13;4.00;99.90
60293;DHT22;52402;52.670;6.750;2024-02-26T07:40:39;4.00;99.90
60293;DHT22;52402;52.670;6.750;2024-02-26T07:43:05;4.00;99.90
60293;DHT22;52402;52.670;6.750;2024-02-26T07:45:30;4.00;99.90
60293;DHT22;52402;52.670;6.750;2024-02-26T07:47:56;4.00;99.90
60293;DHT22;52402;52.670;6.750;2024-02-26T07:50:21;4.00;99.90
60293;DHT22;52402;52.670;6.750;2024-02-26T07:52:47;4.00;99.90
60293;DHT22;52402;52.670;6.750;2024-02-26T07:55:13;4.10;99.90
60293;DHT22;52402;52.670;6.750;2024-02-26T07:57:42;4.10;99.90
60293;DHT22;52402;52.670;6.750;2024-02-26T08:00:09;4.10;99.90
60293;DHT22;52402;52.670;6.750;2024-02-26T08:02:36;4.10;99.90
60293;DHT22;52402;52.670;6.750;2024-02-26T08:05:02;4.10;99.90
60293;DHT22;52402;52.670;6.750;2024-02-26T08:07:27;4.10;99.90
60293;DHT22;52402;52.670;6.750;2024-02-26T08:09:54;4.20;99.90
60293;DHT22;52402;52.670;6.750;2024-02-26T08:12:19;4.20;99.90
60293;DHT22;52402;52.670;6.750;2024-02-26T08:14:45;4.20;99.90
60293;DHT22;52402;52.670;6.750;2024-02-26T08:17:11;4.20;99.90
60293;DHT22;52402;52.670;6.750;2024-02-26T08:19:36;4.20;99.90
60293;DHT22;52402;52.670;6.750;2024-02-26T08:22:02;4.20;99.90
60293;DHT22;52402;52.670;6.750;2024-02-26T08:24:28;4.20;99.90
60293;DHT22;52402;52.670;6.750;2024-02-26T08:26:54;4.30;99.90
60293;DHT22;52402;52.670;6.750;2024-02-26T08:29:19;4.30;99.90
60293;DHT22;52402;52.670;6.750;2024-02-26T08:31:45;4.30;99.90
60293;DHT22;52402;52.670;6.750;2024-02-26T08:34:11;4.30;99.90
60293;DHT22;52402;52.670;6.750;2024-02-26T08:36:36;4.30;99.90
60293;DHT22;52402;52.670;6.750;2024-02-26T08:39:02;4.30;99.90
60293;DHT22;52402;52.670;6.750;2024-02-26T08:41:28;4.30;99.90
60293;DHT22;52402;52.670;6.750;2024-02-26T08:43:54;4.30;99.90
60293;DHT22;52402;52.670;6.750;2024-02-26T08:46:20;4.30;99.90
60293;DHT22;52402;52.670;6.750;2024-02-26T08:48:46;4.30;99.90
60293;DHT22;52402;52.670;6.750;2024-02-26T08:51:11;4.40;99.90
60293;DHT22;52402;52.670;6.750;2024-02-26T08:53:38;4.40;99.90
60293;DHT22;52402;52.670;6.750;2024-02-26T08:56:04;4.40;99.90
60293;DHT22;52402;52.670;6.750;2024-02-26T08:58:30;4.40;99.90
60293;DHT22;52402;52.670;6.750;2024-02-26T09:00:56;4.40;99.90
60293;DHT22;52402;52.670;6.750;2024-02-26T09:03:22;4.40;99.90
60293;DHT22;52402;52.670;6.750;2024-02-26T09:05:48;4.40;99.90
60293;DHT22;52402;52.670;6.750;2024-02-26T09:08:16;4.40;99.90
60293;DHT22;52402;52.670;6.750;2024-02-26T09:10:42;4.40;99.90
60293;DHT22;52402;52.670;6.750;2024-02-26T09:13:08;4.50;99.90
60293;DHT22;52402;52.670;6.750;2024-02-26T09:15:33;4.50;99.90
60293;DHT22;52402;52.670;6.750;2024-02-26T09:17:59;4.50;99.90
60293;DHT22;52402;52.670;6.750;2024-02-26T09:20:25;4.50;99.90
60293;DHT22;52402;52.670;6.750;2024-02-26T09:22:50;4.50;99.90
60293;DHT22;52402;52.670;6.750;2024-02-26T09:25:19;4.60;99.90
60293;DHT22;52402;52.670;6.750;2024-02-26T09:27:46;4.60;99.90
60293;DHT22;52402;52.670;6.750;2024-02-26T09:30:12;4.60;99.90
60293;DHT22;52402;52.670;6.750;2024-02-26T09:32:38;4.60;99.90
60293;DHT22;52402;52.670;6.750;2024-02-26T09:35:05;4.70;99.90
60293;DHT22;52402;52.670;6.750;2024-02-26T09:37:30;4.70;99.90
60293;DHT22;52402;52.670;6.750;2024-02-26T09:39:56;4.70;99.90
60293;DHT22;52402;52.670;6.750;2024-02-26T09:42:25;4.70;99.90
60293;DHT22;52402;52.670;6.750;2024-02-26T09:44:54;4.80;99.90
60293;DHT22;52402;52.670;6.750;2024-02-26T09:47:22;4.80;99.90
60293;DHT22;52402;52.670;6.750;2024-02-26T09:49:49;4.80;99.90
60293;DHT22;52402;52.670;6.750;2024-02-26T09:52:17;4.80;99.90
60293;DHT22;52402;52.670;6.750;2024-02-26T09:54:47;4.90;99.90
60293;DHT22;52402;52.670;6.750;2024-02-26T09:57:14;4.90;99.90
60293;DHT22;52402;52.670;6.750;2024-02-26T09:59:42;4.90;99.90
60293;DHT22;52402;52.670;6.750;2024-02-26T10:02:15;5.00;99.90
60293;DHT22;52402;52.670;6.750;2024-02-26T10:04:41;5.00;99.90
60293;DHT22;52402;52.670;6.750;2024-02-26T10:07:12;5.00;99.90
60293;DHT22;52402;52.670;6.750;2024-02-26T10:09:38;5.10;99.90
60293;DHT22;52402;52.670;6.750;2024-02-26T10:12:05;5.10;99.90
60293;DHT22;52402;52.670;6.750;2024-02-26T10:14:32;5.20;99.90
60293;DHT22;52402;52.670;6.750;2024-02-26T10:16:59;5.20;99.90
60293;DHT22;52402;52.670;6.750;2024-02-26T10:19:30;5.30;99.90
60293;DHT22;52402;52.670;6.750;2024-02-26T10:22:00;5.30;99.90
60293;DHT22;52402;52.670;6.750;2024-02-26T10:24:26;5.40;99.90
60293;DHT22;52402;52.670;6.750;2024-02-26T10:26:54;5.40;99.90
60293;DHT22;52402;52.670;6.750;2024-02-26T10:29:20;5.50;99.90
60293;DHT22;52402;52.670;6.750;2024-02-26T10:31:46;5.50;99.90
60293;DHT22;52402;52.670;6.750;2024-02-26T10:34:12;5.60;99.90
60293;DHT22;52402;52.670;6.750;2024-02-26T10:36:38;5.70;99.90
60293;DHT22;52402;52.670;6.750;2024-02-26T10:39:06;5.70;99.90
60293;DHT22;52402;52.670;6.750;2024-02-26T10:41:35;5.70;99.90
60293;DHT22;52402;52.670;6.750;2024-02-26T10:44:00;5.70;99.90
60293;DHT22;52402;52.670;6.750;2024-02-26T10:46:26;5.70;99.90
60293;DHT22;52402;52.670;6.750;2024-02-26T10:48:53;5.80;99.90
60293;DHT22;52402;52.670;6.750;2024-02-26T10:51:22;5.80;99.90
60293;DHT22;52402;52.670;6.750;2024-02-26T10:53:51;5.90;99.90
60293;DHT22;52402;52.670;6.750;2024-02-26T10:56:24;5.90;99.90
60293;DHT22;52402;52.670;6.750;2024-02-26T10:58:51;6.00;99.90
60293;DHT22;52402;52.670;6.750;2024-02-26T11:01:18;6.00;99.90
60293;DHT22;52402;52.670;6.750;2024-02-26T11:03:45;6.00;99.90
60293;DHT22;52402;52.670;6.750;2024-02-26T11:06:12;6.10;99.90
60293;DHT22;52402;52.670;6.750;2024-02-26T11:08:38;6.10;99.90
60293;DHT22;52402;52.670;6.750;2024-02-26T11:11:05;6.20;99.90
60293;DHT22;52402;52.670;6.750;2024-02-26T11:13:31;6.20;99.90
60293;DHT22;52402;52.670;6.750;2024-02-26T11:15:57;6.20;99.90
60293;DHT22;52402;52.670;6.750;2024-02-26T11:18:26;6.30;99.90
60293;DHT22;52402;52.670;6.750;2024-02-26T11:20:52;6.40;99.90
60293;DHT22;52402;52.670;6.750;2024-02-26T11:23:22;6.40;99.90
60293;DHT22;52402;52.670;6.750;2024-02-26T11:25:48;6.40;99.90
60293;DHT22;52402;52.670;6.750;2024-02-26T11:28:16;6.40;99.90
60293;DHT22;52402;52.670;6.750;2024-02-26T11:30:46;6.40;99.90
60293;DHT22;52402;52.670;6.750;2024-02-26T11:33:14;6.40;99.90
60293;DHT22;52402;52.670;6.750;2024-02-26T11:35:40;6.40;99.90
60293;DHT22;52402;52.670;6.750;2024-02-26T11:38:06;6.40;99.90
60293;DHT22;52402;52.670;6.750;2024-02-26T11:40:33;6.30;99.90
60293;DHT22;52402;52.670;6.750;2024-02-26T11:43:03;6.30;99.90
60293;DHT22;52402;52.670;6.750;2024-02-26T11:48:28;6.20;99.90
60293;DHT22;52402;52.670;6.750;2024-02-26T11:50:55;6.20;99.90
60293;DHT22;52402;52.670;6.750;2024-02-26T11:53:28;6.10;99.90
60293;DHT22;52402;52.670;6.750;2024-02-26T11:56:22;6.10;99.90
60293;DHT22;52402;52.670;6.750;2024-02-26T11:58:48;6.00;99.90
60293;DHT22;52402;52.670;6.750;2024-02-26T12:06:45;6.00;99.90
60293;DHT22;52402;52.670;6.750;2024-02-26T12:09:11;6.00;99.90
60293;DHT22;52402;52.670;6.750;2024-02-26T12:11:39;5.90;99.90
60293;DHT22;52402;52.670;6.750;2024-02-26T12:14:07;5.90;99.90
60293;DHT22;52402;52.670;6.750;2024-02-26T12:16:38;5.90;99.90
60293;DHT22;52402;52.670;6.750;2024-02-26T12:19:06;5.90;99.90
60293;DHT22;52402;52.670;6.750;2024-02-26T12:21:36;5.90;99.90
60293;DHT22;52402;52.670;6.750;2024-02-26T12:24:13;5.90;99.90
60293;DHT22;52402;52.670;6.750;2024-02-26T12:26:39;5.90;99.90
60293;DHT22;52402;52.670;6.750;2024-02-26T12:29:05;5.90;99.90
60293;DHT22;52402;52.670;6.750;2024-02-26T12:31:32;6.00;99.90
60293;DHT22;52402;52.670;6.750;2024-02-26T12:33:59;6.00;99.90
60293;DHT22;52402;52.670;6.750;2024-02-26T12:36:24;6.00;99.90
60293;DHT22;52402;52.670;6.750;2024-02-26T12:38:51;6.00;99.90
60293;DHT22;52402;52.670;6.750;2024-02-26T12:41:17;6.00;99.90
60293;DHT22;52402;52.670;6.750;2024-02-26T12:43:43;6.00;99.90
60293;DHT22;52402;52.670;6.750;2024-02-26T12:46:08;6.00;99.90
60293;DHT22;52402;52.670;6.750;2024-02-26T12:48:34;5.90;99.90
60293;DHT22;52402;52.670;6.750;2024-02-26T12:51:00;6.00;99.90
60293;DHT22;52402;52.670;6.750;2024-02-26T12:53:26;6.00;99.90
60293;DHT22;52402;52.670;6.750;2024-02-26T12:55:54;6.00;99.90
60293;DHT22;52402;52.670;6.750;2024-02-26T12:58:20;6.00;99.90
60293;DHT22;52402;52.670;6.750;2024-02-26T13:00:51;6.00;99.90
60293;DHT22;52402;52.670;6.750;2024-02-26T13:03:17;6.00;99.90
60293;DHT22;52402;52.670;6.750;2024-02-26T13:05:43;6.00;99.90
60293;DHT22;52402;52.670;6.750;2024-02-26T13:08:08;6.00;99.90
60293;DHT22;52402;52.670;6.750;2024-02-26T13:10:34;6.00;99.90
60293;DHT22;52402;52.670;6.750;2024-02-26T13:13:02;6.00;99.90
60293;DHT22;52402;52.670;6.750;2024-02-26T13:15:27;6.00;99.90
60293;DHT22;52402;52.670;6.750;2024-02-26T13:17:53;6.00;99.90
60293;DHT22;52402;52.670;6.750;2024-02-26T13:20:29;6.10;99.90
60293;DHT22;52402;52.670;6.750;2024-02-26T13:23:05;6.10;99.90
60293;DHT22;52402;52.670;6.750;2024-02-26T13:25:31;6.10;99.90
60293;DHT22;52402;52.670;6.750;2024-02-26T13:28:16;6.10;99.90
60293;DHT22;52402;52.670;6.750;2024-02-26T13:30:56;6.10;99.90
60293;DHT22;52402;52.670;6.750;2024-02-26T13:33:23;6.10;99.90
60293;DHT22;52402;52.670;6.750;2024-02-26T13:35:49;6.10;99.90
60293;DHT22;52402;52.670;6.750;2024-02-26T13:38:16;6.10;99.90
60293;DHT22;52402;52.670;6.750;2024-02-26T13:40:42;6.10;99.90
60293;DHT22;52402;52.670;6.750;2024-02-26T13:43:08;6.10;99.90
60293;DHT22;52402;52.670;6.750;2024-02-26T13:45:37;6.10;99.90
60293;DHT22;52402;52.670;6.750;2024-02-26T13:48:04;6.10;99.90
60293;DHT22;52402;52.670;6.750;2024-02-26T13:50:30;6.10;99.90
60293;DHT22;52402;52.670;6.750;2024-02-26T13:52:56;6.20;99.90
60293;DHT22;52402;52.670;6.750;2024-02-26T13:55:25;6.20;99.90
60293;DHT22;52402;52.670;6.750;2024-02-26T13:57:54;6.20;99.90
60293;DHT22;52402;52.670;6.750;2024-02-26T14:00:20;6.20;99.90
60293;DHT22;52402;52.670;6.750;2024-02-26T14:02:46;6.20;99.90
60293;DHT22;52402;52.670;6.750;2024-02-26T14:05:12;6.30;99.90
60293;DHT22;52402;52.670;6.750;2024-02-26T14:07:37;6.20;99.90
60293;DHT22;52402;52.670;6.750;2024-02-26T14:10:03;6.20;99.90
60293;DHT22;52402;52.670;6.750;2024-02-26T14:12:29;6.20;99.90
60293;DHT22;52402;52.670;6.750;2024-02-26T14:14:55;6.20;99.90
60293;DHT22;52402;52.670;6.750;2024-02-26T14:17:21;6.20;99.90
60293;DHT22;52402;52.670;6.750;2024-02-26T14:19:48;6.20;99.90
60293;DHT22;52402;52.670;6.750;2024-02-26T14:22:14;6.20;99.90
60293;DHT22;52402;52.670;6.750;2024-02-26T14:24:41;6.20;99.90
60293;DHT22;52402;52.670;6.750;2024-02-26T14:27:12;6.10;99.90
60293;DHT22;52402;52.670;6.750;2024-02-26T14:29:41;6.10;99.90
60293;DHT22;52402;52.670;6.750;2024-02-26T14:32:11;6.10;99.90
60293;DHT22;52402;52.670;6.750;2024-02-26T14:34:36;6.10;99.90
60293;DHT22;52402;52.670;6.750;2024-02-26T14:37:02;6.10;99.90
60293;DHT22;52402;52.670;6.750;2024-02-26T14:39:28;6.00;99.90
60293;DHT22;52402;52.670;6.750;2024-02-26T14:41:55;6.10;99.90
60293;DHT22;52402;52.670;6.750;2024-02-26T14:44:21;6.00;99.90
60293;DHT22;52402;52.670;6.750;2024-02-26T14:46:46;6.00;99.90
60293;DHT22;52402;52.670;6.750;2024-02-26T14:49:12;6.00;99.90
60293;DHT22;52402;52.670;6.750;2024-02-26T14:51:38;6.00;99.90
60293;DHT22;52402;52.670;6.750;2024-02-26T14:54:04;6.00;99.90
60293;DHT22;52402;52.670;6.750;2024-02-26T14:56:29;5.90;99.90
60293;DHT22;52402;52.670;6.750;2024-02-26T14:58:55;5.90;99.90
60293;DHT22;52402;52.670;6.750;2024-02-26T15:01:21;5.90;99.90
60293;DHT22;52402;52.670;6.750;2024-02-26T15:03:47;5.80;99.90
60293;DHT22;52402;52.670;6.750;2024-02-26T15:06:13;5.80;99.90
60293;DHT22;52402;52.670;6.750;2024-02-26T15:08:38;5.70;99.90
60293;DHT22;52402;52.670;6.750;2024-02-26T15:11:04;5.70;99.90
60293;DHT22;52402;52.670;6.750;2024-02-26T15:13:30;5.70;99.90
60293;DHT22;52402;52.670;6.750;2024-02-26T15:15:56;5.70;99.90
60293;DHT22;52402;52.670;6.750;2024-02-26T15:18:21;5.60;99.90
60293;DHT22;52402;52.670;6.750;2024-02-26T15:20:47;5.60;99.90
60293;DHT22;52402;52.670;6.750;2024-02-26T15:23:13;5.60;99.90
60293;DHT22;52402;52.670;6.750;2024-02-26T15:25:38;5.60;99.90
60293;DHT22;52402;52.670;6.750;2024-02-26T15:28:07;5.60;99.90
60293;DHT22;52402;52.670;6.750;2024-02-26T15:30:32;5.50;99.90
60293;DHT22;52402;52.670;6.750;2024-02-26T15:32:59;5.50;99.90
60293;DHT22;52402;52.670;6.750;2024-02-26T15:35:25;5.40;99.90
60293;DHT22;52402;52.670;6.750;2024-02-26T15:37:51;5.40;99.90
60293;DHT22;52402;52.670;6.750;2024-02-26T15:40:17;5.40;99.90
60293;DHT22;52402;52.670;6.750;2024-02-26T15:42:43;5.40;99.90
60293;DHT22;52402;52.670;6.750;2024-02-26T15:45:09;5.40;99.90
60293;DHT22;52402;52.670;6.750;2024-02-26T15:47:34;5.40;99.90
60293;DHT22;52402;52.670;6.750;2024-02-26T15:50:01;5.40;99.90